Time;durP1;ratioP1;P1;durP2;ratioP2;P2;SDS_P1;SDS_P2;PMS_P1;PMS_P2;Temp;Humidity;BMP_temperature;BMP_pressure;BME280_temperature;BME280_humidity;BME280_pressure;Samples;Min_cycle;Max_cycle;Signal;HPM_P1;HPM_P2
2022/01/29 00:00:47;;;;;;;17.93;3.43;;;;;;;1.22;75.90;101705.94;1738524;82;21030;-69
2022/01/29 00:03:14;;;;;;;12.37;3.03;;;;;;;1.23;75.96;101715.03;1738540;82;21047;-69
2022/01/29 00:05:41;;;;;;;12.87;3.07;;;;;;;1.25;76.17;101708.63;1738529;82;21543;-69
2022/01/29 00:08:08;;;;;;;13.00;3.27;;;;;;;1.23;76.25;101708.57;1738511;82;22107;-68
2022/01/29 00:10:37;;;;;;;12.73;2.60;;;;;;;1.23;76.29;101703.83;1738451;82;20939;-68
2022/01/29 00:13:04;;;;;;;10.43;2.60;;;;;;;1.23;76.42;101707.28;1738849;82;22106;-69
2022/01/29 00:15:31;;;;;;;14.00;3.50;;;;;;;1.23;76.54;101707.70;1738561;82;21007;-80
2022/01/29 00:17:59;;;;;;;16.57;3.33;;;;;;;1.24;76.57;101712.02;1738764;82;21250;-69
2022/01/29 00:20:26;;;;;;;13.87;3.70;;;;;;;1.24;76.65;101715.47;1738504;82;22004;-69
2022/01/29 00:22:53;;;;;;;11.03;3.10;;;;;;;1.22;76.77;101710.71;1738670;82;21000;-79
2022/01/29 00:25:20;;;;;;;12.20;2.67;;;;;;;1.24;76.87;101715.89;1738766;82;21082;-69
2022/01/29 00:27:47;;;;;;;15.00;3.27;;;;;;;1.23;76.91;101706.41;1739024;82;21038;-68
2022/01/29 00:30:17;;;;;;;14.13;3.70;;;;;;;1.23;77.01;101715.45;1738588;82;21132;-68
2022/01/29 00:32:44;;;;;;;16.63;4.23;;;;;;;1.22;77.11;101708.13;1738892;82;21274;-78
2022/01/29 00:35:11;;;;;;;14.13;3.60;;;;;;;1.23;77.29;101698.66;1738864;82;21031;-69
2022/01/29 00:37:38;;;;;;;14.07;3.73;;;;;;;1.24;77.28;101697.81;1738725;82;21026;-68
2022/01/29 00:40:08;;;;;;;13.33;3.20;;;;;;;1.25;77.46;101695.70;1738981;82;21030;-68
2022/01/29 00:42:35;;;;;;;15.70;2.80;;;;;;;1.26;77.55;101696.14;1738990;82;21527;-69
2022/01/29 00:45:02;;;;;;;16.70;3.80;;;;;;;1.27;77.67;101692.71;1738812;82;21936;-69
2022/01/29 00:47:29;;;;;;;13.23;3.60;;;;;;;1.29;77.73;101689.33;1738915;82;21055;-79
2022/01/29 00:49:57;;;;;;;9.47;2.67;;;;;;;1.29;77.77;101690.62;1738669;82;21038;-68
2022/01/29 00:52:24;;;;;;;17.07;2.90;;;;;;;1.28;77.81;101688.02;1738970;82;21440;-70
2022/01/29 00:54:51;;;;;;;15.43;3.00;;;;;;;1.28;77.78;101682.86;1738691;82;21023;-69
2022/01/29 00:57:18;;;;;;;13.63;3.07;;;;;;;1.25;77.86;101678.49;1740909;82;21122;-68
2022/01/29 00:59:46;;;;;;;16.07;3.40;;;;;;;1.23;77.98;101678.87;1742090;82;21055;-79
2022/01/29 01:02:13;;;;;;;14.90;2.90;;;;;;;1.24;78.06;101679.73;1742071;82;21042;-70
2022/01/29 01:04:40;;;;;;;12.93;3.50;;;;;;;1.23;78.23;101681.45;1742138;82;21014;-77
2022/01/29 01:07:10;;;;;;;11.70;3.03;;;;;;;1.22;78.25;101678.43;1742116;82;20991;-68
2022/01/29 01:09:38;;;;;;;15.60;3.20;;;;;;;1.23;78.32;101693.50;1742157;82;21173;-69
2022/01/29 01:12:07;;;;;;;13.33;3.50;;;;;;;1.23;78.46;101678.00;1742278;82;20904;-68
2022/01/29 01:14:34;;;;;;;16.47;3.50;;;;;;;1.23;78.48;101673.70;1742129;82;21003;-69
2022/01/29 01:17:01;;;;;;;15.73;3.70;;;;;;;1.24;78.58;101655.20;1742472;82;20980;-79
2022/01/29 01:19:28;;;;;;;15.80;3.63;;;;;;;1.26;78.69;101652.23;1742054;82;21744;-72
2022/01/29 01:21:57;;;;;;;13.57;3.13;;;;;;;1.27;78.79;101646.22;1742493;82;21209;-75
2022/01/29 01:24:24;;;;;;;17.00;3.30;;;;;;;1.30;78.81;101656.61;1737887;82;20999;-68
2022/01/29 01:26:52;;;;;;;14.87;3.00;;;;;;;1.32;78.95;101652.36;1728995;82;21126;-77
2022/01/29 01:29:20;;;;;;;13.13;2.97;;;;;;;1.32;78.94;101653.22;1737941;82;21468;-69
2022/01/29 01:31:47;;;;;;;17.23;3.43;;;;;;;1.34;78.95;101655.85;1728754;83;21039;-69
2022/01/29 01:34:16;;;;;;;15.03;3.13;;;;;;;1.34;78.97;101641.64;1737929;82;21136;-68
2022/01/29 01:36:48;;;;;;;15.80;3.20;;;;;;;1.33;79.08;101638.59;1728676;82;21024;-69
2022/01/29 01:39:15;;;;;;;16.33;3.90;;;;;;;1.35;79.20;101633.05;1737160;82;21090;-75
2022/01/29 01:41:48;;;;;;;14.57;2.80;;;;;;;1.35;79.18;101630.46;1728987;82;21023;-69
2022/01/29 01:44:15;;;;;;;19.57;4.33;;;;;;;1.35;79.16;101634.34;1736878;82;21003;-78
2022/01/29 01:46:42;;;;;;;18.40;3.27;;;;;;;1.34;79.23;101629.59;1728885;82;21128;-68
2022/01/29 01:49:10;;;;;;;15.67;2.83;;;;;;;1.32;79.21;101629.11;1737895;82;21447;-75
2022/01/29 01:51:48;;;;;;;16.07;3.63;;;;;;;1.30;79.22;101631.68;1706150;83;20997;-69
2022/01/29 01:54:18;;;;;;;14.43;3.03;;;;;;;1.27;79.30;101634.17;1737949;82;21039;-68
2022/01/29 01:56:44;;;;;;;19.37;3.40;;;;;;;1.25;79.41;101624.67;1725505;83;21068;-72
2022/01/29 01:59:12;;;;;;;13.73;3.17;;;;;;;1.24;79.51;101613.45;1732299;82;21289;-69
2022/01/29 02:01:39;;;;;;;13.37;3.07;;;;;;;1.23;79.49;101603.11;1713961;83;21497;-68
2022/01/29 02:04:07;;;;;;;21.27;3.70;;;;;;;1.21;79.55;101604.34;1713841;83;21782;-68
2022/01/29 02:06:34;;;;;;;14.40;3.10;;;;;;;1.20;79.62;101614.67;1714019;83;21581;-79
2022/01/29 02:09:02;;;;;;;14.07;3.70;;;;;;;1.20;79.77;101596.16;1713693;83;21045;-69
2022/01/29 02:11:29;;;;;;;19.83;3.50;;;;;;;1.21;79.77;101597.03;1714044;83;21072;-70
2022/01/29 02:13:58;;;;;;;17.67;3.17;;;;;;;1.20;79.77;101594.88;1713675;83;21609;-69
2022/01/29 02:16:30;;;;;;;14.80;2.53;;;;;;;1.20;79.82;101596.16;1732483;82;21580;-69
2022/01/29 02:18:57;;;;;;;13.10;2.57;;;;;;;1.19;79.91;101582.81;1714116;83;21028;-75
2022/01/29 02:21:28;;;;;;;17.83;3.37;;;;;;;1.19;79.97;101589.27;1714047;83;21019;-76
2022/01/29 02:23:55;;;;;;;14.80;2.70;;;;;;;1.21;80.02;101585.41;1713647;83;21140;-68
2022/01/29 02:26:22;;;;;;;18.30;3.27;;;;;;;1.23;80.13;101569.10;1713947;83;21471;-68
2022/01/29 02:28:49;;;;;;;22.00;2.97;;;;;;;1.23;80.17;101559.20;1714114;83;21016;-68
2022/01/29 02:31:16;;;;;;;14.17;2.80;;;;;;;1.23;80.20;101556.62;1713967;83;21416;-69
2022/01/29 02:33:44;;;;;;;16.80;3.03;;;;;;;1.24;80.19;101561.80;1714100;83;21073;-68
2022/01/29 02:36:11;;;;;;;13.07;2.70;;;;;;;1.25;80.32;101558.81;1714050;83;21216;-71
2022/01/29 02:38:38;;;;;;;19.97;3.80;;;;;;;1.27;80.27;101556.69;1713680;83;21001;-68
2022/01/29 02:41:06;;;;;;;21.83;3.23;;;;;;;1.30;80.38;101564.92;1714086;83;21545;-68
2022/01/29 02:43:49;;;;;;;16.97;3.10;;;;;;;1.33;80.34;101562.39;1713957;83;20992;-68
2022/01/29 02:48:49;;;;;;;17.37;2.97;;;;;;;1.38;80.42;101544.41;1713965;83;22242;-69
2022/01/29 02:51:17;;;;;;;16.93;3.22;;;;;;;1.39;80.45;101547.03;1732781;82;20908;-78
2022/01/29 02:53:45;;;;;;;15.23;2.97;;;;;;;1.41;80.47;101552.21;1713735;83;21032;-79
2022/01/29 02:56:12;;;;;;;12.83;2.77;;;;;;;1.42;80.53;101543.21;1713993;83;21020;-69
2022/01/29 02:58:39;;;;;;;14.57;3.17;;;;;;;1.43;80.56;101546.66;1728433;83;21062;-69
2022/01/29 03:01:08;;;;;;;14.43;2.87;;;;;;;1.44;80.48;101540.64;1738894;82;21222;-72
2022/01/29 03:03:36;;;;;;;19.20;3.27;;;;;;;1.44;80.50;101538.95;1739055;82;21035;-69
2022/01/29 03:06:08;;;;;;;20.53;3.23;;;;;;;1.46;80.58;101540.26;1738860;82;21011;-68
2022/01/29 03:08:32;;;;;;;17.67;2.70;;;;;;;1.47;80.57;101539.01;1738172;82;21556;-78
2022/01/29 03:10:59;;;;;;;13.30;3.23;;;;;;;1.49;80.65;101537.73;1738801;82;20999;-69
2022/01/29 03:13:26;;;;;;;15.50;3.00;;;;;;;1.51;80.67;101548.54;1739115;82;21573;-69
2022/01/29 03:15:53;;;;;;;19.97;3.27;;;;;;;1.54;80.76;101532.23;1738774;82;21540;-68
2022/01/29 03:18:20;;;;;;;19.23;3.70;;;;;;;1.57;80.79;101532.27;1739252;82;21535;-80
2022/01/29 03:20:47;;;;;;;17.10;2.97;;;;;;;1.61;80.77;101527.63;1738858;82;21000;-79
2022/01/29 03:23:14;;;;;;;16.23;2.93;;;;;;;1.63;80.78;101517.30;1738855;82;21594;-68
2022/01/29 03:25:43;;;;;;;14.93;3.40;;;;;;;1.64;80.78;101514.76;1739059;82;21099;-69
2022/01/29 03:28:10;;;;;;;18.53;3.07;;;;;;;1.65;80.73;101506.14;1739029;82;21019;-69
2022/01/29 03:30:37;;;;;;;19.73;3.00;;;;;;;1.68;80.78;101513.09;1738989;82;21443;-69
2022/01/29 03:33:04;;;;;;;12.60;2.83;;;;;;;1.68;80.77;101509.21;1739225;82;21022;-79
2022/01/29 03:35:31;;;;;;;21.13;3.43;;;;;;;1.68;80.74;101505.33;1739210;82;21003;-68
2022/01/29 03:37:58;;;;;;;17.27;3.37;;;;;;;1.69;80.74;101500.20;1738970;82;21147;-68
2022/01/29 03:40:26;;;;;;;19.33;3.63;;;;;;;1.71;80.76;101494.62;1739022;82;20999;-69
2022/01/29 03:43:03;;;;;;;16.47;2.53;;;;;;;1.72;80.77;101482.16;1738913;82;21011;-68
2022/01/29 03:45:27;;;;;;;16.63;3.53;;;;;;;1.72;80.78;101473.11;1738638;82;21450;-79
2022/01/29 03:47:54;;;;;;;13.93;2.77;;;;;;;1.74;80.80;101477.86;1738927;82;21070;-68
2022/01/29 03:50:22;;;;;;;16.80;3.43;;;;;;;1.76;80.84;101476.18;1739030;82;21472;-68
2022/01/29 03:52:49;;;;;;;21.73;3.47;;;;;;;1.76;80.82;101465.84;1738947;82;21496;-68
2022/01/29 03:55:16;;;;;;;21.23;4.30;;;;;;;1.78;80.83;101455.11;1738767;82;21552;-68
2022/01/29 03:57:43;;;;;;;15.30;2.97;;;;;;;1.80;80.80;101452.53;1738822;82;21015;-69
2022/01/29 04:00:12;;;;;;;14.90;2.60;;;;;;;1.82;80.81;101442.23;1738979;82;21011;-69
2022/01/29 04:02:40;;;;;;;17.55;3.20;;;;;;;1.83;80.80;101445.25;1738962;82;22105;-68
2022/01/29 04:05:09;;;;;;;20.63;3.07;;;;;;;1.84;80.81;101436.67;1738702;82;21039;-78
2022/01/29 04:07:36;;;;;;;22.17;3.30;;;;;;;1.86;80.77;101438.83;1738947;82;20919;-78
2022/01/29 04:10:04;;;;;;;18.33;3.23;;;;;;;1.87;80.78;101434.98;1738989;82;21007;-68
2022/01/29 04:12:37;;;;;;;18.07;3.40;;;;;;;1.87;80.77;101436.28;1739264;82;21535;-68
2022/01/29 04:15:00;;;;;;;18.70;4.20;;;;;;;1.88;80.72;101431.98;1738194;82;21302;-68
2022/01/29 04:17:28;;;;;;;26.33;4.33;;;;;;;1.89;80.70;101425.98;1739346;82;21039;-69
2022/01/29 04:19:55;;;;;;;17.33;3.50;;;;;;;1.90;80.70;101419.95;1739036;82;21031;-68
2022/01/29 04:22:23;;;;;;;13.50;3.07;;;;;;;1.90;80.67;101410.91;1739297;82;21011;-69
2022/01/29 04:24:50;;;;;;;13.27;2.97;;;;;;;1.91;80.66;101413.92;1739154;82;21055;-68
2022/01/29 04:27:20;;;;;;;16.93;3.30;;;;;;;1.91;80.65;101412.63;1739298;82;21073;-69
2022/01/29 04:30:00;;;;;;;19.67;3.43;;;;;;;1.91;80.61;101406.16;1738778;82;20995;-78
2022/01/29 04:32:30;;;;;;;18.33;3.70;;;;;;;1.91;80.64;101408.36;1737174;82;21000;-69
2022/01/29 04:34:50;;;;;;;15.93;3.03;;;;;;;1.91;80.57;101408.36;1737496;82;21008;-69
2022/01/29 04:37:18;;;;;;;18.37;3.53;;;;;;;1.92;80.62;101397.58;1739276;82;21027;-68
2022/01/29 04:39:45;;;;;;;17.73;3.60;;;;;;;1.92;80.58;101401.46;1739055;82;21810;-69
2022/01/29 04:42:12;;;;;;;13.37;3.17;;;;;;;1.92;80.55;101385.95;1739033;82;21532;-69
2022/01/29 04:44:39;;;;;;;17.77;3.33;;;;;;;1.92;80.52;101388.11;1739405;82;21054;-68
2022/01/29 04:47:06;;;;;;;18.23;3.63;;;;;;;1.92;80.53;101387.24;1738988;82;21014;-68
2022/01/29 04:49:33;;;;;;;24.00;3.53;;;;;;;1.92;80.54;101376.47;1739193;82;21051;-79
2022/01/29 04:52:00;;;;;;;17.67;3.83;;;;;;;1.95;80.51;101383.41;1739002;82;21048;-69
2022/01/29 04:54:27;;;;;;;27.60;4.60;;;;;;;1.95;80.49;101377.80;1739147;82;21015;-73
2022/01/29 04:56:54;;;;;;;17.27;3.73;;;;;;;1.95;80.46;101368.75;1739099;82;21031;-69
2022/01/29 04:59:21;;;;;;;14.47;3.30;;;;;;;1.97;80.47;101371.38;1738915;82;21567;-70
2022/01/29 05:01:48;;;;;;;15.67;3.53;;;;;;;1.98;80.46;101378.27;1738990;82;21070;-69
2022/01/29 05:04:15;;;;;;;20.83;3.37;;;;;;;1.99;80.37;101376.12;1739268;82;21228;-69
2022/01/29 05:06:42;;;;;;;16.60;3.20;;;;;;;1.99;80.40;101363.19;1739022;82;21003;-68
2022/01/29 05:09:10;;;;;;;17.47;3.30;;;;;;;1.98;80.39;101358.87;1739113;82;21062;-69
2022/01/29 05:11:38;;;;;;;21.60;4.30;;;;;;;1.98;80.36;101357.16;1739098;82;21003;-69
2022/01/29 05:14:09;;;;;;;22.23;3.67;;;;;;;2.00;80.33;101361.93;1739305;82;21513;-68
2022/01/29 05:27:27;;;;;;;17.07;3.53;;;;;;;2.01;80.29;101336.94;1739098;82;21504;-76
2022/01/29 05:29:54;;;;;;;17.03;3.27;;;;;;;1.99;80.29;101310.19;1739185;82;21046;-68
2022/01/29 05:32:22;;;;;;;22.20;4.07;;;;;;;1.99;80.30;101305.88;1738982;82;21092;-69
2022/01/29 05:34:49;;;;;;;17.53;3.43;;;;;;;1.99;80.28;101298.12;1739187;82;21050;-68
2022/01/29 05:37:16;;;;;;;20.63;3.70;;;;;;;1.99;80.24;101299.84;1738963;82;21036;-68
2022/01/29 05:39:43;;;;;;;18.40;4.27;;;;;;;1.98;80.20;101299.41;1739259;82;21031;-69
2022/01/29 05:42:10;;;;;;;15.00;3.37;;;;;;;1.98;80.24;101280.02;1739078;82;21283;-68
2022/01/29 05:44:37;;;;;;;17.63;5.37;;;;;;;1.98;80.24;101280.02;1739230;82;21043;-70
2022/01/29 05:47:05;;;;;;;19.50;4.97;;;;;;;1.99;80.23;101280.45;1739014;82;21515;-69
2022/01/29 05:49:32;;;;;;;17.43;4.77;;;;;;;1.98;80.21;101270.97;1739116;82;21039;-69
2022/01/29 05:51:59;;;;;;;18.93;4.30;;;;;;;1.98;80.21;101260.63;1738937;82;21035;-69
2022/01/29 05:54:26;;;;;;;15.33;4.03;;;;;;;2.00;80.29;101256.34;1739280;82;21930;-69
2022/01/29 05:56:54;;;;;;;20.90;3.60;;;;;;;2.01;80.27;101252.47;1738849;82;21015;-69
2022/01/29 05:59:21;;;;;;;16.47;3.50;;;;;;;2.04;80.26;101257.24;1731636;82;21016;-69
2022/01/29 06:01:48;;;;;;;21.17;4.13;;;;;;;2.07;80.27;101245.64;1728198;83;21019;-69
2022/01/29 06:04:15;;;;;;;18.07;3.67;;;;;;;2.09;80.21;101242.66;1728182;83;21031;-78
2022/01/29 06:06:42;;;;;;;24.33;4.63;;;;;;;2.09;80.17;101236.19;1728298;82;21143;-69
2022/01/29 06:09:09;;;;;;;20.30;4.87;;;;;;;2.10;80.15;101232.30;1728255;83;21027;-73
2022/01/29 06:11:36;;;;;;;22.10;4.40;;;;;;;2.09;80.12;101228.00;1728139;83;21023;-79
2022/01/29 06:14:03;;;;;;;18.13;4.07;;;;;;;2.11;80.15;101220.27;1728223;83;20992;-78
2022/01/29 06:16:30;;;;;;;16.13;3.57;;;;;;;2.13;80.11;101218.55;1728474;83;21023;-69
2022/01/29 06:18:57;;;;;;;20.43;3.27;;;;;;;2.14;80.10;101208.66;1728298;83;21208;-69
2022/01/29 06:21:24;;;;;;;15.80;3.77;;;;;;;2.14;80.04;101204.78;1728385;83;21007;-75
2022/01/29 06:23:53;;;;;;;16.13;4.17;;;;;;;2.12;80.01;101196.99;1728176;82;21064;-69
2022/01/29 06:26:20;;;;;;;16.77;4.93;;;;;;;2.14;80.04;101194.44;1728440;83;21023;-68
2022/01/29 06:28:48;;;;;;;12.17;3.40;;;;;;;2.17;80.10;101197.05;1728300;83;21016;-76
2022/01/29 06:31:15;;;;;;;15.87;3.27;;;;;;;2.20;80.09;101194.06;1728401;83;21099;-69
2022/01/29 06:33:42;;;;;;;19.50;4.20;;;;;;;2.23;80.03;101193.22;1728228;83;20996;-69
2022/01/29 06:36:09;;;;;;;19.40;4.17;;;;;;;2.24;79.99;101191.06;1728215;82;21019;-69
2022/01/29 06:38:37;;;;;;;15.13;4.03;;;;;;;2.26;79.96;101193.69;1728544;83;21015;-69
2022/01/29 06:41:04;;;;;;;19.80;4.33;;;;;;;2.29;79.93;101182.93;1728562;82;21013;-69
2022/01/29 06:43:31;;;;;;;17.50;4.37;;;;;;;2.30;79.92;101171.75;1728234;83;22140;-76
2022/01/29 06:45:58;;;;;;;15.97;4.07;;;;;;;2.32;79.89;101175.20;1728298;83;20885;-69
2022/01/29 06:48:25;;;;;;;20.20;4.33;;;;;;;2.35;79.92;101176.52;1728478;82;21035;-68
2022/01/29 06:50:53;;;;;;;18.37;4.53;;;;;;;2.39;79.96;101178.72;1728232;83;20947;-69
2022/01/29 06:53:20;;;;;;;16.50;3.97;;;;;;;2.42;79.92;101171.84;1728442;82;21015;-69
2022/01/29 06:55:47;;;;;;;17.00;3.87;;;;;;;2.44;79.94;101162.82;1728261;82;21312;-69
2022/01/29 06:58:14;;;;;;;15.17;3.50;;;;;;;2.45;79.95;101167.12;1728262;82;21071;-70
2022/01/29 07:00:41;;;;;;;15.10;3.57;;;;;;;2.45;80.02;101163.25;1728164;83;21031;-69
2022/01/29 07:03:08;;;;;;;12.70;3.23;;;;;;;2.44;79.98;101174.46;1728232;83;20984;-69
2022/01/29 07:05:35;;;;;;;14.67;3.47;;;;;;;2.40;80.07;101170.09;1728274;83;21015;-70
2022/01/29 07:08:02;;;;;;;14.17;3.23;;;;;;;2.34;80.21;101175.22;1728079;83;21143;-72
2022/01/29 07:10:29;;;;;;;12.47;3.67;;;;;;;2.29;80.38;101172.58;1731689;81;21019;-71
2022/01/29 07:12:55;;;;;;;12.07;3.37;;;;;;;2.25;80.48;101169.97;1733858;82;21015;-71
2022/01/29 07:15:22;;;;;;;13.03;3.37;;;;;;;2.19;80.64;101172.94;1733862;82;20935;-71
2022/01/29 07:17:49;;;;;;;17.20;4.10;;;;;;;2.15;80.80;101151.77;1734187;82;21035;-71
2022/01/29 07:20:16;;;;;;;17.93;4.77;;;;;;;2.10;81.15;101156.02;1733863;82;21217;-74
2022/01/29 07:22:43;;;;;;;16.47;3.77;;;;;;;2.06;81.29;101144.36;1704810;84;21026;-71
2022/01/29 07:25:10;;;;;;;16.93;4.40;;;;;;;2.04;81.52;101144.77;1733816;82;21032;-70
2022/01/29 07:27:37;;;;;;;17.23;3.90;;;;;;;2.01;81.61;101149.47;1704910;84;21023;-70
2022/01/29 07:30:05;;;;;;;16.67;4.30;;;;;;;1.99;81.75;101149.44;1733973;82;21139;-70
2022/01/29 07:32:32;;;;;;;23.90;5.10;;;;;;;1.99;81.99;101142.12;1704735;84;21163;-70
2022/01/29 07:34:59;;;;;;;17.20;4.20;;;;;;;2.00;82.09;101141.28;1733847;82;21027;-70
2022/01/29 07:37:26;;;;;;;15.33;4.20;;;;;;;2.00;82.15;101134.39;1704808;84;21038;-70
2022/01/29 07:39:52;;;;;;;11.37;4.10;;;;;;;2.02;82.37;101135.68;1733938;82;21067;-70
2022/01/29 07:42:19;;;;;;;16.80;4.37;;;;;;;2.03;82.40;101130.11;1704799;84;21007;-72
2022/01/29 07:44:46;;;;;;;11.90;4.10;;;;;;;2.04;82.47;101115.02;1733768;82;21314;-71
2022/01/29 07:47:13;;;;;;;15.03;3.80;;;;;;;2.05;82.71;101114.16;1704590;84;20995;-70
2022/01/29 07:49:40;;;;;;;14.50;3.63;;;;;;;2.08;82.85;101121.94;1719334;82;21008;-70
2022/01/29 07:52:07;;;;;;;12.50;3.57;;;;;;;2.08;82.79;101102.15;1746761;81;21033;-72
2022/01/29 07:54:34;;;;;;;13.97;3.67;;;;;;;2.10;82.88;101112.48;1707552;82;21016;-71
2022/01/29 07:57:01;;;;;;;13.70;3.67;;;;;;;2.11;83.01;101091.83;1681864;85;21148;-70
2022/01/29 07:59:27;;;;;;;15.00;4.77;;;;;;;2.14;83.15;101087.11;1733325;81;21012;-71
2022/01/29 08:01:54;;;;;;;15.47;4.00;;;;;;;2.16;83.25;101077.63;1744664;81;21532;-70
2022/01/29 08:04:24;;;;;;;18.70;4.77;;;;;;;2.19;83.35;101068.59;1741941;82;20983;-73
2022/01/29 08:06:51;;;;;;;15.57;4.00;;;;;;;2.21;83.42;101065.16;1742206;82;23083;-72
2022/01/29 08:09:18;;;;;;;12.07;3.73;;;;;;;2.21;83.43;101059.99;1740527;81;21136;-76
2022/01/29 08:11:46;;;;;;;9.60;3.40;;;;;;;2.25;83.53;101060.05;1732522;81;20976;-70
2022/01/29 08:14:14;;;;;;;14.63;4.70;;;;;;;2.27;83.56;101059.17;1741580;82;21052;-71
2022/01/29 08:16:41;;;;;;;13.23;3.83;;;;;;;2.28;83.68;101053.59;1741274;82;21003;-71
2022/01/29 08:19:08;;;;;;;12.27;3.57;;;;;;;2.32;83.86;101048.87;1741385;82;21510;-70
2022/01/29 08:21:38;;;;;;;12.20;3.60;;;;;;;2.34;83.73;101048.46;1741154;82;21858;-71
2022/01/29 08:24:07;;;;;;;11.87;3.33;;;;;;;2.36;83.80;101033.82;1741553;82;21548;-71
2022/01/29 08:26:34;;;;;;;12.45;3.70;;;;;;;2.37;83.99;101035.11;1741180;82;20999;-71
2022/01/29 08:29:02;;;;;;;12.80;4.27;;;;;;;2.38;84.04;101035.56;1741537;82;21078;-71
2022/01/29 08:31:29;;;;;;;14.20;4.40;;;;;;;2.42;84.12;101037.30;1741129;82;21010;-71
2022/01/29 08:33:56;;;;;;;12.83;4.13;;;;;;;2.43;84.12;101021.34;1741253;82;21143;-71
2022/01/29 08:36:23;;;;;;;18.07;4.10;;;;;;;2.44;84.13;101017.49;1740966;82;21484;-73
2022/01/29 08:38:50;;;;;;;12.97;3.90;;;;;;;2.46;84.23;101019.63;1741486;82;21022;-71
2022/01/29 08:41:17;;;;;;;10.70;3.67;;;;;;;2.49;84.26;101004.99;1741207;82;21373;-73
2022/01/29 08:43:44;;;;;;;9.70;3.50;;;;;;;2.51;84.27;100986.47;1741168;82;21022;-71
2022/01/29 08:46:11;;;;;;;12.47;3.80;;;;;;;2.52;84.32;100997.24;1741463;82;21123;-71
2022/01/29 08:48:38;;;;;;;10.80;4.20;;;;;;;2.53;84.37;100995.11;1740949;82;21598;-72
2022/01/29 08:51:05;;;;;;;14.67;4.07;;;;;;;2.54;84.42;100987.34;1741384;82;21042;-71
2022/01/29 08:53:34;;;;;;;12.80;3.83;;;;;;;2.56;84.56;100992.11;1741256;82;21000;-71
2022/01/29 08:56:01;;;;;;;14.13;4.70;;;;;;;2.57;84.51;100987.78;1741562;82;21086;-74
2022/01/29 08:58:28;;;;;;;10.57;4.13;;;;;;;2.56;84.60;100998.57;1741249;82;21136;-71
2022/01/29 09:00:55;;;;;;;12.53;4.73;;;;;;;2.54;84.61;100976.98;1725870;82;21034;-71
2022/01/29 09:03:23;;;;;;;11.50;4.33;;;;;;;2.53;84.71;100977.86;1724595;83;20996;-72
2022/01/29 09:05:50;;;;;;;9.97;4.27;;;;;;;2.53;84.82;100966.65;1724925;83;21052;-72
2022/01/29 09:08:19;;;;;;;8.73;4.00;;;;;;;2.50;84.98;100966.20;1724563;83;21027;-70
2022/01/29 09:10:46;;;;;;;13.63;4.73;;;;;;;2.50;85.09;100977.84;1724501;83;21209;-71
2022/01/29 09:13:14;;;;;;;11.27;4.60;;;;;;;2.48;85.19;100952.38;1724575;83;21082;-70
2022/01/29 09:15:42;;;;;;;11.47;4.53;;;;;;;2.46;85.27;100954.09;1724574;83;20988;-70
2022/01/29 09:18:09;;;;;;;12.97;4.90;;;;;;;2.43;85.41;100947.61;1724610;83;21019;-70
2022/01/29 09:20:36;;;;;;;12.47;4.97;;;;;;;2.42;85.42;100943.30;1724489;83;21620;-70
2022/01/29 09:23:03;;;;;;;11.37;4.50;;;;;;;2.42;85.56;100954.95;1724465;83;21137;-71
2022/01/29 09:25:31;;;;;;;13.47;4.60;;;;;;;2.40;85.73;100936.81;1724549;83;21301;-71
2022/01/29 09:28:00;;;;;;;11.50;4.67;;;;;;;2.40;85.89;100936.81;1724499;83;21016;-70
2022/01/29 09:30:26;;;;;;;13.20;4.77;;;;;;;2.40;85.85;100935.95;1724549;83;21035;-69
2022/01/29 09:32:53;;;;;;;11.93;4.57;;;;;;;2.39;86.02;100932.94;1724551;83;21624;-74
2022/01/29 09:35:21;;;;;;;9.50;5.00;;;;;;;2.38;86.07;100932.08;1724592;83;21151;-71
2022/01/29 09:37:48;;;;;;;12.37;4.93;;;;;;;2.38;86.16;100929.90;1724535;83;21007;-73
2022/01/29 09:40:15;;;;;;;13.77;4.90;;;;;;;2.37;86.36;100925.16;1724886;83;21047;-73
2022/01/29 09:42:45;;;;;;;14.27;4.50;;;;;;;2.37;86.42;100922.58;1724520;83;21529;-74
2022/01/29 09:45:16;;;;;;;7.87;4.67;;;;;;;2.37;86.44;100921.72;1724951;83;21052;-75
2022/01/29 09:47:45;;;;;;;13.57;5.10;;;;;;;2.37;86.66;100922.58;1724740;83;21140;-77
2022/01/29 09:50:15;;;;;;;13.47;4.90;;;;;;;2.35;86.60;100920.40;1724798;83;21015;-75
2022/01/29 09:52:42;;;;;;;12.58;5.53;;;;;;;2.35;86.73;100917.81;1724680;83;21496;-74
2022/01/29 09:55:10;;;;;;;13.70;4.53;;;;;;;2.36;86.81;100918.70;1724843;83;21059;-74
2022/01/29 09:57:37;;;;;;;10.43;5.17;;;;;;;2.36;86.88;100909.65;1724862;83;21023;-73
2022/01/29 10:00:07;;;;;;;11.23;4.77;;;;;;;2.37;87.09;100899.73;1725503;82;21151;-75
2022/01/29 10:02:36;;;;;;;12.00;5.00;;;;;;;2.38;87.22;100900.15;1711005;83;22016;-72
2022/01/29 10:05:04;;;;;;;10.10;5.27;;;;;;;2.38;87.27;100897.56;1711326;83;21095;-74
2022/01/29 10:07:32;;;;;;;12.17;5.30;;;;;;;2.38;87.34;100885.92;1711551;83;21011;-72
2022/01/29 10:10:03;;;;;;;14.70;5.63;;;;;;;2.39;87.47;100889.82;1711332;83;21544;-72
2022/01/29 10:12:36;;;;;;;10.10;5.35;;;;;;;2.39;87.53;100878.61;1711842;83;21109;-72
2022/01/29 10:15:07;;;;;;;8.73;4.97;;;;;;;2.41;87.58;100870.00;1685621;83;21063;-73
2022/01/29 10:17:56;;;;;;;10.17;5.33;;;;;;;2.42;87.71;100864.39;1711563;83;21572;-74
2022/01/29 10:20:26;;;;;;;10.30;4.53;;;;;;;2.43;87.72;100857.91;1728814;82;21030;-76
2022/01/29 10:22:57;;;;;;;11.67;6.77;;;;;;;2.43;87.75;100846.70;1683647;85;21469;-72
2022/01/29 10:25:31;;;;;;;11.65;5.37;;;;;;;2.43;87.88;100860.50;1683396;85;21148;-73
2022/01/29 10:28:15;;;;;;;10.33;5.23;;;;;;;2.42;87.97;100835.50;1683284;85;21047;-73
2022/01/29 10:31:01;;;;;;;11.60;5.27;;;;;;;2.42;87.97;100826.45;1683634;85;21028;-73
2022/01/29 10:33:40;;;;;;;10.70;5.77;;;;;;;2.41;88.05;100826.42;1683684;85;21004;-74
2022/01/29 10:36:12;;;;;;;10.53;6.17;;;;;;;2.38;88.08;100822.54;1683240;85;21051;-74
2022/01/29 10:38:57;;;;;;;10.50;6.10;;;;;;;2.38;88.19;100813.08;1683524;85;21153;-73
2022/01/29 10:41:31;;;;;;;12.33;5.30;;;;;;;2.37;88.27;100810.04;1683581;85;21015;-74
2022/01/29 10:44:15;;;;;;;9.50;5.97;;;;;;;2.39;88.41;100813.94;1695646;83;22858;-76
2022/01/29 10:46:57;;;;;;;9.47;5.87;;;;;;;2.39;88.51;100799.28;1703496;84;20995;-75
2022/01/29 10:49:34;;;;;;;8.63;5.10;;;;;;;2.39;88.68;100786.34;1704552;84;21087;-74
2022/01/29 10:52:11;;;;;;;13.70;6.90;;;;;;;2.40;88.87;100790.64;1704775;84;21155;-74
2022/01/29 10:54:41;;;;;;;10.80;5.53;;;;;;;2.41;88.85;100785.03;1704435;84;21015;-74
2022/01/29 10:57:13;;;;;;;10.93;5.28;;;;;;;2.40;88.92;100766.50;1704927;84;21019;-75
2022/01/29 10:59:53;;;;;;;8.30;5.10;;;;;;;2.40;88.99;100762.19;1704183;83;21094;-76
2022/01/29 11:02:25;;;;;;;7.53;4.85;;;;;;;2.39;89.08;100758.32;1702140;84;21078;-85
2022/01/29 11:04:51;;;;;;;10.07;5.50;;;;;;;2.41;89.12;100750.11;1702007;84;39090;-79
2022/01/29 11:07:24;;;;;;;10.40;4.93;;;;;;;2.38;89.14;100756.17;1702141;83;21039;-77
2022/01/29 11:09:51;;;;;;;12.40;4.63;;;;;;;2.37;89.18;100732.44;1701621;84;21035;-73
2022/01/29 11:12:22;;;;;;;8.83;5.40;;;;;;;2.38;89.30;100738.06;1702104;84;21047;-74
2022/01/29 11:14:54;;;;;;;9.67;5.30;;;;;;;2.40;89.39;100727.70;1702144;84;21023;-75
2022/01/29 11:17:23;;;;;;;9.53;5.77;;;;;;;2.41;89.60;100723.83;1702042;84;21830;-74
2022/01/29 11:19:51;;;;;;;8.20;5.42;;;;;;;2.43;89.62;100707.00;1702159;84;21067;-72
2022/01/29 11:22:28;;;;;;;8.20;5.23;;;;;;;2.45;89.74;100696.23;1701907;84;22022;-74
2022/01/29 11:25:02;;;;;;;9.27;5.93;;;;;;;2.46;89.86;100691.48;1702408;84;21031;-72
2022/01/29 11:27:33;;;;;;;8.97;5.23;;;;;;;2.49;89.92;100678.98;1702079;84;21055;-72
2022/01/29 11:30:11;;;;;;;9.97;5.07;;;;;;;2.51;90.04;100670.36;1702414;84;21133;-73
2022/01/29 11:32:49;;;;;;;8.93;5.73;;;;;;;2.54;90.19;100667.77;1701990;84;21027;-76
2022/01/29 11:35:25;;;;;;;9.47;5.00;;;;;;;2.58;90.30;100665.62;1701880;84;21040;-75
2022/01/29 11:38:06;;;;;;;8.00;4.90;;;;;;;2.63;90.32;100660.42;1701966;84;21027;-75
2022/01/29 11:40:44;;;;;;;10.03;5.47;;;;;;;2.67;90.35;100659.58;1702315;84;21078;-75
2022/01/29 11:43:24;;;;;;;10.97;6.07;;;;;;;2.74;90.61;100664.30;1700249;84;21155;-76
2022/01/29 11:46:05;;;;;;;7.40;4.42;;;;;;;2.77;90.59;100653.95;1702181;84;21015;-74